createdAt,value
2022-08-17T00:06:13.260Z,59.07
2022-08-17T00:07:11.980Z,59.27
2022-08-17T00:12:34.686Z,59.89
2022-08-17T00:17:37.663Z,60.22
2022-08-17T00:19:08.448Z,60.31
2022-08-17T00:23:22.422Z,59.79
2022-08-17T00:26:45.170Z,59.99
2022-08-17T00:34:02.156Z,61.44
2022-08-17T00:38:40.140Z,61.44
2022-08-17T00:51:20.241Z,61.94
2022-08-17T00:58:40.885Z,62.73
2022-08-17T01:01:47.329Z,63.36
2022-08-17T01:06:42.775Z,63.89
2022-08-17T01:25:30.328Z,63.59
2022-08-17T01:46:08.419Z,66.07
2022-08-17T02:46:36.864Z,68.43
2022-08-17T02:57:22.304Z,68.86
2022-08-17T02:58:35.947Z,69.06
2022-08-17T03:04:25.724Z,69.59
2022-08-17T03:10:18.720Z,69.06
2022-08-17T03:37:18.831Z,68.59
2022-08-17T04:07:37.134Z,69.43
2022-08-17T04:32:59.432Z,69.13
2022-08-17T04:37:19.927Z,68.93
2022-08-17T04:40:43.927Z,68.93
2022-08-17T04:48:57.169Z,68.49
2022-08-17T04:58:13.829Z,68.19
2022-08-17T05:06:35.590Z,67.57
2022-08-17T05:24:43.060Z,67.96
2022-08-17T05:27:06.014Z,67.76
2022-08-17T05:37:52.151Z,66.83
2022-08-17T05:38:26.623Z,66.73
2022-08-17T05:39:22.275Z,66.73
2022-08-17T05:40:45.176Z,66.73
2022-08-17T05:41:25.608Z,66.73
2022-08-17T05:42:21.385Z,66.73
2022-08-17T05:52:07.086Z,66.10
2022-08-17T06:03:45.241Z,65.57
2022-08-17T06:04:36.170Z,65.27
2022-08-17T06:05:35.462Z,65.57
2022-08-17T06:06:33.540Z,65.77
2022-08-17T06:07:33.612Z,65.91
2022-08-17T06:08:35.252Z,65.80
2022-08-17T06:09:34.057Z,66.00
2022-08-17T06:10:33.563Z,65.57
2022-08-17T06:11:33.545Z,65.37
2022-08-17T06:12:35.166Z,65.27
2022-08-17T06:13:33.573Z,65.17
2022-08-17T06:14:33.513Z,65.08
2022-08-17T06:15:33.467Z,64.94
2022-08-17T06:16:34.839Z,64.25
2022-08-17T06:17:33.444Z,64.15
2022-08-17T06:18:33.503Z,64.15
2022-08-17T06:19:34.224Z,64.34
2022-08-17T06:20:33.508Z,63.35
2022-08-17T06:21:33.481Z,63.02
2022-08-17T06:22:33.714Z,62.52
2022-08-17T06:23:33.481Z,61.72
2022-08-17T06:24:34.751Z,61.43
2022-08-17T06:25:34.159Z,61.10
2022-08-17T06:26:34.553Z,61.10
2022-08-17T06:27:33.326Z,60.50
2022-08-17T06:28:33.373Z,60.70
2022-08-17T06:29:33.309Z,59.98
2022-08-17T06:30:57.360Z,59.98
2022-08-17T06:31:34.279Z,61.27
2022-08-17T06:32:34.211Z,63.82
2022-08-17T06:33:33.269Z,58.95
2022-08-17T06:34:33.221Z,58.45
2022-08-17T06:35:34.209Z,58.75
2022-08-17T06:36:34.021Z,58.36
2022-08-17T06:37:33.199Z,58.56
2022-08-17T06:38:37.523Z,58.33
2022-08-17T06:39:35.014Z,58.13
2022-08-17T06:40:33.175Z,57.24
2022-08-17T06:41:33.171Z,58.03
2022-08-17T06:43:02.629Z,57.24
2022-08-17T06:43:34.169Z,58.50
2022-08-17T06:44:43.237Z,57.34
2022-08-17T06:45:34.165Z,57.21
2022-08-17T06:46:33.105Z,56.81
2022-08-17T06:47:33.897Z,56.71
2022-08-17T06:48:33.087Z,57.01
2022-08-17T06:49:33.109Z,56.71
2022-08-17T06:50:37.637Z,55.99
2022-08-17T06:51:36.666Z,55.69
2022-08-17T06:52:45.883Z,55.99
2022-08-17T06:53:34.045Z,55.89
2022-08-17T06:54:36.847Z,55.89
2022-08-17T06:55:37.730Z,55.79
2022-08-17T06:56:53.354Z,56.49
2022-08-17T06:57:33.990Z,55.87
2022-08-17T06:58:33.765Z,56.66
2022-08-17T06:59:54.213Z,55.64
2022-08-17T07:00:33.999Z,55.54
2022-08-17T07:01:33.018Z,55.17
2022-08-17T07:02:51.331Z,55.17
2022-08-17T07:03:33.938Z,55.36
2022-08-17T07:04:33.571Z,55.36
2022-08-17T07:05:32.915Z,55.96
2022-08-17T07:06:32.912Z,55.57
2022-08-17T07:07:34.680Z,55.49
2022-08-17T07:08:34.855Z,55.49
2022-08-17T07:09:33.661Z,55.69
2022-08-17T07:10:32.858Z,55.79
2022-08-17T07:11:32.851Z,55.79
2022-08-17T07:12:32.821Z,56.76
2022-08-17T07:13:32.842Z,55.57
2022-08-17T07:14:32.792Z,55.99
2022-08-17T07:15:32.773Z,56.59
2022-08-17T07:16:33.583Z,56.68
2022-08-17T07:17:46.742Z,56.78
2022-08-17T07:18:33.763Z,56.59
2022-08-17T07:19:32.762Z,56.59
2022-08-17T07:20:32.724Z,56.59
2022-08-17T07:21:32.714Z,56.98
2022-08-17T07:22:50.316Z,56.29
2022-08-17T07:23:35.557Z,57.65
2022-08-17T07:24:32.701Z,56.06
2022-08-17T07:25:32.682Z,56.46
2022-08-17T07:26:32.667Z,56.46
2022-08-17T07:27:32.667Z,56.36
2022-08-17T07:28:32.667Z,56.85
2022-08-17T07:29:34.402Z,56.66
2022-08-17T07:30:44.652Z,57.15
2022-08-17T07:31:33.639Z,56.66
2022-08-17T07:32:32.655Z,56.78
2022-08-17T07:33:32.648Z,56.98
2022-08-17T07:34:35.322Z,57.08
2022-08-17T07:35:40.747Z,56.98
2022-08-17T07:36:38.152Z,57.18
2022-08-17T07:37:33.375Z,56.98
2022-08-17T07:38:34.903Z,56.85
2022-08-17T07:39:58.809Z,56.76
2022-08-17T07:40:33.554Z,56.76
2022-08-17T07:41:58.049Z,56.95
2022-08-17T07:42:36.121Z,56.66
2022-08-17T07:43:32.483Z,56.76
2022-08-17T07:44:32.462Z,56.76
2022-08-17T07:45:32.443Z,57.15
2022-08-17T07:46:32.444Z,56.88
2022-08-17T07:47:34.567Z,57.25
2022-08-17T07:48:32.424Z,57.15
2022-08-17T07:49:32.419Z,57.48
2022-08-17T07:50:32.411Z,57.38
2022-08-17T07:51:32.625Z,57.38
2022-08-17T07:52:50.843Z,57.38
2022-08-17T07:53:33.412Z,57.65
2022-08-17T07:54:32.366Z,57.58
2022-08-17T07:55:32.340Z,57.98
2022-08-17T07:56:32.565Z,57.98
2022-08-17T07:57:32.325Z,57.98
2022-08-17T07:58:32.316Z,57.98
2022-08-17T07:59:33.613Z,57.85
2022-08-17T08:00:32.991Z,58.04
2022-08-17T08:01:41.834Z,57.23
2022-08-17T08:02:33.814Z,57.13
2022-08-17T08:03:32.296Z,57.55
2022-08-17T08:05:50.779Z,57.62
2022-08-17T08:06:33.215Z,58.32
2022-08-17T08:07:32.234Z,57.42
2022-08-17T08:08:32.219Z,57.13
2022-08-17T08:09:32.199Z,57.53
2022-08-17T08:10:32.179Z,57.03
2022-08-17T08:11:32.165Z,57.69
2022-08-17T08:12:33.717Z,57.23
2022-08-17T08:13:32.175Z,57.29
2022-08-17T08:14:32.130Z,57.10
2022-08-17T08:15:32.133Z,57.23
2022-08-17T08:16:32.127Z,58.12
2022-08-17T08:17:32.105Z,58.02
2022-08-17T08:18:53.773Z,57.55
2022-08-17T08:19:33.083Z,57.32
2022-08-17T08:20:37.761Z,57.65
2022-08-17T08:21:33.100Z,57.65
2022-08-17T08:22:32.046Z,57.75
2022-08-17T08:23:32.068Z,57.65
2022-08-17T08:24:32.016Z,57.85
2022-08-17T08:25:32.051Z,57.55
2022-08-17T08:26:32.818Z,57.85
2022-08-17T08:27:32.002Z,57.95
2022-08-17T08:28:31.986Z,57.95
2022-08-17T08:29:31.987Z,57.95
2022-08-17T08:30:33.093Z,58.74
2022-08-17T08:31:31.971Z,58.37
2022-08-17T08:32:31.947Z,58.47
2022-08-17T08:33:31.930Z,58.74
2022-08-17T08:34:45.031Z,58.15
2022-08-17T08:35:47.592Z,58.34
2022-08-17T08:36:57.038Z,58.54
2022-08-17T08:37:37.874Z,57.72
2022-08-17T08:38:32.907Z,57.92
2022-08-17T08:39:31.908Z,58.34
2022-08-17T08:40:31.877Z,58.54
2022-08-17T08:41:31.855Z,58.84
2022-08-17T08:42:31.825Z,59.07
2022-08-17T08:43:31.826Z,58.74
2022-08-17T08:45:00.415Z,58.42
2022-08-17T08:45:32.793Z,57.92
2022-08-17T08:46:31.785Z,58.02
2022-08-17T08:47:31.784Z,57.89
2022-08-17T08:48:56.920Z,57.00
2022-08-17T08:50:01.358Z,56.48
2022-08-17T08:50:38.172Z,56.60
2022-08-17T08:51:32.772Z,56.70
2022-08-17T08:52:31.727Z,57.27
2022-08-17T08:53:31.725Z,56.68
2022-08-17T08:54:31.695Z,56.77
2022-08-17T08:55:31.721Z,56.38
2022-08-17T08:56:31.696Z,56.77
2022-08-17T08:57:34.499Z,56.90
2022-08-17T08:58:41.602Z,57.10
2022-08-17T08:59:32.647Z,57.29
2022-08-17T09:00:31.644Z,57.29
2022-08-17T09:01:31.675Z,57.10
2022-08-17T09:02:34.873Z,57.42
2022-08-17T09:03:51.908Z,57.42
2022-08-17T09:04:40.753Z,57.50
2022-08-17T09:05:32.586Z,57.40
2022-08-17T09:06:33.572Z,56.97
2022-08-17T09:07:32.565Z,56.45
2022-08-17T09:08:31.553Z,55.76
2022-08-17T09:09:31.557Z,55.46
2022-08-17T09:10:31.533Z,55.53
2022-08-17T09:11:31.533Z,55.04
2022-08-17T09:12:31.504Z,55.13
2022-08-17T09:13:31.533Z,55.13
2022-08-17T09:14:31.496Z,55.33
2022-08-17T09:15:32.465Z,55.46
2022-08-17T09:16:31.455Z,55.56
2022-08-17T09:17:31.553Z,55.85
2022-08-17T09:19:02.257Z,56.05
2022-08-17T09:19:32.435Z,56.25
2022-08-17T09:20:31.416Z,55.36
2022-08-17T09:21:33.721Z,55.76
2022-08-17T09:22:31.499Z,55.76
2022-08-17T09:23:31.388Z,55.96
2022-08-17T09:24:31.387Z,55.66
2022-08-17T09:25:31.371Z,55.76
2022-08-17T09:26:31.348Z,55.88
2022-08-17T09:27:31.346Z,56.08
2022-08-17T09:28:31.318Z,56.48
2022-08-17T09:29:35.989Z,56.97
2022-08-17T09:30:34.000Z,56.87
2022-08-17T09:31:33.391Z,55.85
2022-08-17T09:32:31.298Z,55.76
2022-08-17T09:33:31.280Z,55.88
2022-08-17T09:34:33.127Z,56.05
2022-08-17T09:35:36.445Z,55.85
2022-08-17T09:36:32.261Z,55.66
2022-08-17T09:37:31.251Z,55.33
2022-08-17T09:38:32.714Z,55.24
2022-08-17T09:39:31.265Z,55.53
2022-08-17T09:40:31.230Z,55.73
2022-08-17T09:41:31.183Z,55.43
2022-08-17T09:42:31.184Z,54.94
2022-08-17T09:43:31.173Z,54.84
2022-08-17T09:44:31.197Z,54.84
2022-08-17T09:45:31.178Z,54.91
2022-08-17T09:46:31.157Z,55.01
2022-08-17T09:47:31.138Z,54.71
2022-08-17T09:48:31.137Z,54.91
2022-08-17T09:49:31.150Z,54.52
2022-08-17T09:51:01.625Z,54.52
2022-08-17T09:51:32.126Z,54.91
2022-08-17T09:52:31.077Z,54.42
2022-08-17T09:53:31.967Z,54.52
2022-08-17T09:54:39.879Z,55.53
2022-08-17T09:55:32.057Z,56.02
2022-08-17T09:56:31.023Z,55.53
2022-08-17T09:57:32.016Z,55.33
2022-08-17T09:58:31.013Z,55.60
2022-08-17T09:59:38.368Z,55.53
2022-08-17T10:00:31.988Z,55.53
2022-08-17T10:01:31.044Z,55.24
2022-08-17T10:02:30.994Z,55.24
2022-08-17T10:03:30.956Z,55.33
2022-08-17T10:04:30.944Z,55.33
2022-08-17T10:05:30.933Z,55.73
2022-08-17T10:06:30.913Z,55.93
2022-08-17T10:07:30.984Z,55.93
2022-08-17T10:08:30.894Z,56.13
2022-08-17T10:09:30.887Z,56.32
2022-08-17T10:10:32.427Z,56.25
2022-08-17T10:11:33.903Z,56.65
2022-08-17T10:12:30.852Z,56.77
2022-08-17T10:13:30.847Z,56.87
2022-08-17T10:14:36.387Z,57.00
2022-08-17T10:15:31.856Z,57.40
2022-08-17T10:16:30.864Z,57.50
2022-08-17T10:17:30.806Z,57.29
2022-08-17T10:18:33.361Z,57.29
2022-08-17T10:19:30.793Z,57.07
2022-08-17T10:20:30.777Z,56.68
2022-08-17T10:21:30.778Z,56.87
2022-08-17T10:22:34.825Z,57.17
2022-08-17T10:23:31.730Z,57.57
2022-08-17T10:24:30.734Z,57.76
2022-08-17T10:25:49.044Z,58.36
2022-08-17T10:26:43.081Z,58.69
2022-08-17T10:27:31.689Z,59.18
2022-08-17T10:28:30.710Z,59.58
2022-08-17T10:29:30.689Z,59.67
2022-08-17T10:30:31.701Z,59.88
2022-08-17T10:31:35.420Z,59.78
2022-08-17T10:32:31.652Z,59.78
2022-08-17T10:33:30.640Z,59.97
2022-08-17T10:34:34.177Z,60.07
2022-08-17T10:35:31.689Z,60.07
2022-08-17T10:36:30.623Z,60.27
2022-08-17T10:37:30.584Z,60.27
2022-08-17T10:38:30.574Z,60.70
2022-08-17T10:39:30.630Z,61.10
2022-08-17T10:40:30.630Z,61.19
2022-08-17T10:41:30.550Z,61.19
2022-08-17T10:42:33.071Z,61.39
2022-08-17T10:43:30.511Z,62.21
2022-08-17T10:44:38.455Z,62.21
2022-08-17T10:45:31.530Z,62.61
2022-08-17T10:46:31.799Z,63.04
2022-08-17T10:47:52.703Z,63.13
2022-08-17T10:48:31.468Z,63.54
2022-08-17T10:49:30.447Z,63.96
2022-08-17T10:50:30.469Z,64.36
2022-08-17T10:51:30.430Z,64.56
2022-08-17T10:52:30.430Z,64.86
2022-08-17T10:53:30.410Z,64.86
2022-08-17T10:54:30.410Z,64.95
2022-08-17T10:55:30.410Z,65.16
2022-08-17T10:56:30.382Z,65.25
2022-08-17T10:57:30.400Z,65.58
2022-08-17T10:58:30.363Z,65.78
2022-08-17T10:59:30.352Z,65.98
2022-08-17T11:00:30.361Z,66.11
2022-08-17T11:01:30.420Z,66.31
2022-08-17T11:02:30.314Z,66.51
2022-08-17T11:03:30.303Z,66.51
2022-08-17T11:04:30.294Z,66.48
2022-08-17T11:05:30.296Z,66.48
2022-08-17T11:06:30.276Z,66.38
2022-08-17T11:07:30.255Z,66.78
2022-08-17T11:08:30.260Z,67.37
2022-08-17T11:09:30.279Z,67.77
2022-08-17T11:10:30.245Z,67.97
2022-08-17T11:11:30.226Z,68.50
2022-08-17T11:12:30.217Z,69.20
2022-08-17T11:15:42.623Z,69.92
2022-08-17T11:17:53.499Z,72.44
2022-08-17T11:18:50.456Z,73.34
2022-08-17T11:28:40.448Z,79.27
2022-08-17T11:30:44.862Z,78.56
2022-08-17T11:33:53.768Z,79.06
2022-08-17T11:34:50.594Z,79.57
2022-08-17T11:38:14.040Z,80.60
2022-08-17T11:39:07.536Z,80.90
2022-08-17T11:40:09.645Z,81.90
2022-08-17T11:41:15.243Z,82.09
2022-08-17T11:42:09.774Z,82.43
2022-08-17T11:43:07.818Z,83.53
2022-08-17T11:44:14.217Z,84.19
2022-08-17T11:45:10.112Z,83.53
2022-08-17T11:46:09.226Z,84.13
2022-08-17T11:47:07.773Z,84.27
2022-08-17T11:48:27.214Z,84.97
2022-08-17T11:49:40.565Z,84.87
2022-08-17T11:51:26.421Z,86.71
2022-08-17T11:52:34.244Z,87.11
2022-08-17T11:53:32.013Z,86.47
2022-08-17T11:54:33.193Z,86.36
2022-08-17T11:55:35.508Z,85.57
2022-08-17T11:56:25.842Z,85.77
2022-08-17T11:57:28.222Z,86.01
2022-08-17T11:58:29.535Z,87.21
2022-08-17T11:59:25.111Z,87.21
2022-08-17T12:00:28.494Z,87.01
2022-08-17T12:01:24.269Z,87.55
2022-08-17T12:02:27.242Z,87.61
2022-08-17T12:09:16.114Z,87.16
2022-08-17T12:10:11.818Z,86.31
2022-08-17T12:11:10.712Z,86.57
2022-08-17T12:12:12.539Z,86.97
2022-08-17T12:14:35.678Z,86.47
2022-08-17T12:15:28.970Z,86.27
2022-08-17T12:16:21.882Z,86.72
2022-08-17T12:17:39.591Z,86.93
2022-08-17T12:18:29.231Z,86.72
2022-08-17T12:19:27.246Z,86.13
2022-08-17T12:22:10.193Z,85.63
2022-08-17T12:22:42.067Z,84.83
2022-08-17T12:23:38.193Z,85.03
2022-08-17T12:24:39.952Z,84.83
2022-08-17T12:25:46.478Z,84.93
2022-08-17T12:28:06.411Z,85.63
2022-08-17T12:28:46.930Z,85.13
2022-08-17T12:29:46.705Z,84.93
2022-08-17T12:32:08.702Z,84.29
2022-08-17T12:33:25.629Z,83.65
2022-08-17T12:34:09.789Z,83.95
2022-08-17T12:35:08.384Z,84.45
2022-08-17T12:36:08.365Z,83.11
2022-08-17T12:37:08.353Z,83.31
2022-08-17T12:38:26.655Z,84.31
2022-08-17T12:39:14.070Z,83.01
2022-08-17T12:40:12.012Z,82.62
2022-08-17T12:41:08.304Z,82.48
2022-08-17T12:42:08.358Z,81.68
2022-08-17T12:43:09.289Z,82.18
2022-08-17T12:44:08.277Z,82.37
2022-08-17T12:45:08.286Z,82.78
2022-08-17T12:46:13.375Z,82.24
2022-08-17T12:47:11.899Z,81.84
2022-08-17T12:48:08.227Z,82.14
2022-08-17T12:49:08.218Z,82.00
2022-08-17T12:50:29.547Z,81.60
2022-08-17T12:51:10.022Z,80.84
2022-08-17T12:52:08.260Z,81.24
2022-08-17T12:53:09.809Z,81.30
2022-08-17T12:54:09.800Z,80.80
2022-08-17T12:55:08.170Z,80.54
2022-08-17T12:56:08.145Z,80.44
2022-08-17T12:57:08.131Z,81.88
2022-08-17T12:58:13.617Z,82.28
2022-08-17T12:59:09.111Z,82.57
2022-08-17T13:00:08.100Z,82.04
2022-08-17T13:01:08.914Z,81.98
2022-08-17T13:02:08.993Z,81.92
2022-08-17T13:03:08.062Z,83.31
2022-08-17T13:04:08.053Z,82.65
2022-08-17T13:05:08.843Z,83.15
2022-08-17T13:06:10.384Z,83.71
2022-08-17T13:07:08.845Z,83.67
2022-08-17T13:08:11.883Z,82.97
2022-08-17T13:09:08.008Z,82.57
2022-08-17T13:10:09.514Z,81.98
2022-08-17T13:11:08.798Z,81.68
2022-08-17T13:12:08.866Z,81.18
2022-08-17T13:13:11.853Z,82.28
2022-08-17T13:14:07.965Z,82.57
2022-08-17T13:15:07.946Z,81.88
2022-08-17T13:16:08.757Z,82.18
2022-08-17T13:17:13.509Z,81.54
2022-08-17T13:18:08.734Z,81.14
2022-08-17T13:19:08.717Z,80.84
2022-08-17T13:20:08.907Z,81.14
2022-08-17T13:21:07.878Z,81.74
2022-08-17T13:22:07.944Z,81.54
2022-08-17T13:23:12.356Z,81.54
2022-08-17T13:24:07.863Z,80.90
2022-08-17T13:25:09.470Z,81.20
2022-08-17T13:26:09.456Z,80.60
2022-08-17T13:27:08.534Z,80.71
2022-08-17T13:28:09.461Z,80.27
2022-08-17T13:29:12.369Z,80.60
2022-08-17T13:30:08.572Z,80.21
2022-08-17T13:31:07.761Z,80.80
2022-08-17T13:32:13.124Z,81.10
2022-08-17T13:33:08.751Z,81.50
2022-08-17T13:34:10.390Z,80.51
2022-08-17T13:35:16.533Z,80.51
2022-08-17T13:36:10.792Z,80.71
2022-08-17T13:37:08.694Z,80.84
2022-08-17T13:38:07.700Z,81.44
2022-08-17T13:39:07.682Z,81.24
2022-08-17T13:40:09.494Z,80.54
2022-08-17T13:41:08.474Z,80.94
2022-08-17T13:42:13.514Z,80.90
2022-08-17T13:43:07.634Z,80.17
2022-08-17T13:44:07.624Z,79.47
2022-08-17T13:45:34.938Z,79.87
2022-08-17T13:46:10.640Z,79.27
2022-08-17T13:47:11.277Z,79.67
2022-08-17T13:48:18.103Z,79.14
2022-08-17T13:49:11.467Z,79.33
2022-08-17T13:50:10.747Z,79.20
2022-08-17T13:52:28.419Z,77.70
2022-08-17T13:53:23.759Z,78.14
2022-08-17T13:54:23.406Z,77.94
2022-08-17T13:55:19.966Z,78.74
2022-08-17T13:56:33.521Z,77.77
2022-08-17T13:57:23.116Z,75.74
2022-08-17T13:58:25.212Z,74.62
2022-08-17T13:59:52.634Z,74.12
2022-08-17T14:00:24.079Z,74.95
2022-08-17T14:01:34.847Z,76.25
2022-08-17T14:02:25.809Z,75.09
2022-08-17T14:03:28.020Z,76.21
2022-08-17T14:04:48.298Z,76.61
2022-08-17T14:05:25.303Z,75.98
2022-08-17T14:10:23.936Z,70.84
2022-08-17T14:11:33.819Z,70.75
2022-08-17T14:12:06.733Z,72.07
2022-08-17T14:13:10.604Z,73.33
2022-08-17T14:14:02.057Z,73.27
2022-08-17T14:15:01.119Z,73.07
2022-08-17T14:16:01.065Z,73.83
2022-08-17T14:17:01.080Z,74.52
2022-08-17T14:18:01.060Z,74.66
2022-08-17T14:19:01.065Z,74.56
2022-08-17T14:20:10.441Z,75.16
2022-08-17T14:21:01.829Z,75.56
2022-08-17T14:22:04.893Z,74.82
2022-08-17T14:23:03.747Z,73.73
2022-08-17T14:24:01.000Z,73.33
2022-08-17T14:25:05.601Z,73.73
2022-08-17T14:26:08.090Z,73.99
2022-08-17T14:27:00.969Z,73.69
2022-08-17T14:28:02.203Z,73.46
2022-08-17T14:29:01.762Z,73.69
2022-08-17T14:30:01.815Z,73.36
2022-08-17T14:31:02.549Z,73.40
2022-08-17T14:32:03.951Z,73.99
2022-08-17T14:33:01.581Z,73.33
2022-08-17T14:34:05.081Z,74.23
2022-08-17T14:35:04.641Z,74.52
2022-08-17T14:36:04.079Z,74.52
2022-08-17T14:37:01.665Z,74.33
2022-08-17T14:38:10.504Z,73.69
2022-08-17T14:39:05.483Z,73.30
2022-08-17T14:40:00.947Z,72.90
2022-08-17T14:41:00.811Z,73.50
2022-08-17T14:42:00.816Z,70.98
2022-08-17T14:43:02.506Z,71.41
2022-08-17T14:44:03.459Z,70.22
2022-08-17T14:45:02.635Z,68.17
2022-08-17T14:46:03.446Z,67.21
2022-08-17T14:47:00.788Z,65.89
2022-08-17T14:48:04.608Z,64.48
2022-08-17T14:49:02.406Z,61.18
2022-08-17T14:50:04.269Z,57.20
2022-08-17T14:51:03.925Z,60.22
2022-08-17T14:52:03.367Z,60.29
2022-08-17T14:53:01.929Z,59.89
2022-08-17T14:54:02.321Z,59.27
2022-08-17T14:55:03.899Z,60.52
2022-08-17T14:56:01.461Z,61.43
2022-08-17T14:57:23.058Z,59.72
2022-08-17T14:58:03.227Z,57.57
2022-08-17T14:59:07.551Z,55.23
2022-08-17T15:00:06.874Z,53.23
2022-08-17T15:01:00.701Z,54.57
2022-08-17T15:02:02.309Z,56.52
2022-08-17T15:03:03.286Z,57.11
2022-08-17T15:04:04.275Z,57.43
2022-08-17T15:05:00.594Z,58.57
2022-08-17T15:06:04.064Z,58.80
2022-08-17T15:07:05.155Z,58.34
2022-08-17T15:08:05.164Z,57.28
2022-08-17T15:09:01.347Z,56.00
2022-08-17T15:10:05.869Z,57.82
2022-08-17T15:11:22.788Z,57.08
2022-08-17T15:12:07.092Z,56.81
2022-08-17T15:13:08.687Z,55.87
2022-08-17T15:14:02.130Z,55.68
2022-08-17T15:15:05.026Z,55.45
2022-08-17T15:16:00.478Z,54.76
2022-08-17T15:17:01.947Z,56.22
2022-08-17T15:18:00.751Z,56.96
2022-08-17T15:19:02.072Z,58.30
2022-08-17T15:20:02.142Z,59.22
2022-08-17T15:21:03.073Z,60.63
2022-08-17T15:22:05.495Z,61.85
2022-08-17T15:23:01.660Z,62.54
2022-08-17T15:24:01.912Z,62.84
2022-08-17T15:25:02.817Z,63.62
2022-08-17T15:26:00.372Z,62.15
2022-08-17T15:27:00.354Z,62.18
2022-08-17T15:28:00.379Z,63.23
2022-08-17T15:29:01.126Z,64.67
2022-08-17T15:30:00.355Z,64.54
2022-08-17T15:31:00.295Z,64.78
2022-08-17T15:32:01.126Z,64.78
2022-08-17T15:33:04.947Z,66.22
2022-08-17T15:34:00.310Z,66.95
2022-08-17T15:35:01.536Z,68.37
2022-08-17T15:36:01.059Z,69.06
2022-08-17T15:37:02.631Z,69.79
2022-08-17T15:38:07.927Z,70.09
2022-08-17T15:39:01.229Z,70.62
2022-08-17T15:40:00.356Z,72.07
2022-08-17T15:41:01.011Z,72.57
2022-08-17T15:42:03.059Z,73.40
2022-08-17T15:43:01.770Z,73.07
2022-08-17T15:44:00.195Z,72.14
2022-08-17T15:45:01.902Z,72.47
2022-08-17T15:46:00.965Z,72.67
2022-08-17T15:47:00.151Z,72.37
2022-08-17T15:48:01.519Z,72.24
2022-08-17T15:49:01.102Z,70.85
2022-08-17T15:50:02.880Z,70.42
2022-08-17T15:51:03.823Z,70.02
2022-08-17T15:52:01.745Z,70.42
2022-08-17T15:53:01.755Z,70.12
2022-08-17T15:54:04.503Z,70.15
2022-08-17T15:55:03.730Z,70.55
2022-08-17T15:56:00.053Z,71.18
2022-08-17T15:57:02.685Z,71.14
2022-08-17T15:58:00.833Z,70.85
2022-08-17T15:59:01.696Z,70.32
2022-08-17T16:00:00.121Z,70.02
2022-08-17T16:01:16.992Z,69.59
2022-08-17T16:03:09.821Z,70.12
2022-08-17T16:03:45.812Z,69.82
2022-08-17T16:04:06.817Z,69.49
2022-08-17T16:05:01.027Z,66.98
2022-08-17T16:06:00.818Z,65.47
2022-08-17T16:07:01.203Z,65.50
2022-08-17T16:08:02.562Z,64.51
2022-08-17T16:08:59.942Z,61.72
2022-08-17T16:09:59.979Z,61.04
2022-08-17T16:10:59.901Z,60.71
2022-08-17T16:12:03.701Z,61.69
2022-08-17T16:13:01.525Z,61.98
2022-08-17T16:13:59.912Z,59.99
2022-08-17T16:15:02.511Z,58.91
2022-08-17T16:15:59.850Z,59.20
2022-08-17T16:17:02.578Z,60.67
2022-08-17T16:17:59.842Z,61.91
2022-08-17T16:19:01.603Z,61.94
2022-08-17T16:19:59.844Z,62.17
2022-08-17T16:21:01.458Z,61.29
2022-08-17T16:22:04.774Z,59.83
2022-08-17T16:23:02.432Z,58.78
2022-08-17T16:23:59.795Z,59.33
2022-08-17T16:25:01.427Z,61.29
2022-08-17T16:25:59.784Z,63.03
2022-08-17T16:26:59.750Z,65.00
2022-08-17T16:28:03.319Z,65.40
2022-08-17T16:29:00.721Z,64.38
2022-08-17T16:30:03.239Z,65.27
2022-08-17T16:31:01.361Z,66.42
2022-08-17T16:32:03.294Z,67.44
2022-08-17T16:32:59.710Z,67.21
2022-08-17T16:34:17.696Z,67.11
2022-08-17T16:35:03.387Z,67.11
2022-08-17T16:36:02.299Z,67.74
2022-08-17T16:37:06.564Z,67.94
2022-08-17T16:38:02.281Z,68.17
2022-08-17T16:38:59.613Z,68.76
2022-08-17T16:40:02.357Z,68.57
2022-08-17T16:40:59.603Z,68.66
2022-08-17T16:41:59.601Z,66.91
2022-08-17T16:42:59.592Z,66.82
2022-08-17T16:43:59.586Z,66.52
2022-08-17T16:45:00.385Z,66.32
2022-08-17T16:46:01.909Z,65.70
2022-08-17T16:47:00.334Z,64.90
2022-08-17T16:47:59.537Z,65.00
2022-08-17T16:49:03.798Z,65.13
2022-08-17T16:50:04.187Z,64.70
2022-08-17T16:51:04.054Z,63.56
2022-08-17T16:51:59.497Z,61.19
2022-08-17T16:52:59.501Z,59.43
2022-08-17T16:54:00.727Z,60.08
2022-08-17T16:55:02.151Z,59.59
2022-08-17T16:56:02.573Z,58.64
2022-08-17T16:57:02.776Z,57.01
2022-08-17T16:57:59.446Z,56.91
2022-08-17T16:58:59.430Z,56.20
2022-08-17T17:00:01.199Z,55.35
2022-08-17T17:01:01.204Z,54.74
2022-08-17T17:01:59.397Z,54.47
2022-08-17T17:03:01.001Z,57.06
2022-08-17T17:04:01.344Z,59.22
2022-08-17T17:04:59.384Z,60.11
2022-08-17T17:06:01.282Z,60.46
2022-08-17T17:07:01.194Z,61.25
2022-08-17T17:08:01.090Z,61.35
2022-08-17T17:09:05.553Z,60.21
2022-08-17T17:09:59.304Z,59.19
2022-08-17T17:11:00.654Z,58.25
2022-08-17T17:12:01.962Z,56.71
2022-08-17T17:13:04.371Z,55.77
2022-08-17T17:14:01.026Z,54.37
2022-08-17T17:15:03.089Z,54.17
2022-08-17T17:15:59.245Z,53.95
2022-08-17T17:17:00.026Z,54.05
2022-08-17T17:18:01.947Z,54.54
2022-08-17T17:19:02.881Z,53.95
2022-08-17T17:20:01.868Z,54.25
2022-08-17T17:21:00.680Z,53.83
2022-08-17T17:22:00.419Z,54.49
2022-08-17T17:22:59.158Z,52.92
2022-08-17T17:23:59.168Z,53.93
2022-08-17T17:24:59.130Z,54.74
2022-08-17T17:26:03.050Z,55.56
2022-08-17T17:26:59.120Z,55.66
2022-08-17T17:28:00.635Z,56.08
2022-08-17T17:28:59.114Z,56.30
2022-08-17T17:30:01.722Z,56.99
2022-08-17T17:31:00.313Z,56.48
2022-08-17T17:32:02.735Z,55.33
2022-08-17T17:33:02.239Z,54.91
2022-08-17T17:34:03.726Z,54.62
2022-08-17T17:35:00.656Z,54.52
2022-08-17T17:35:59.805Z,54.22
2022-08-17T17:36:59.015Z,54.45
2022-08-17T17:37:59.015Z,55.07
2022-08-17T17:38:58.997Z,55.29
2022-08-17T17:39:59.879Z,55.16
2022-08-17T17:41:02.228Z,54.87
2022-08-17T17:41:59.776Z,55.62
2022-08-17T17:43:20.409Z,55.68
2022-08-17T17:44:01.805Z,55.91
2022-08-17T17:44:58.939Z,56.40
2022-08-17T17:45:58.962Z,56.82
2022-08-17T17:47:00.728Z,56.43
2022-08-17T17:47:58.924Z,56.95
2022-08-17T17:48:58.912Z,57.37
2022-08-17T17:50:00.586Z,57.45
2022-08-17T17:50:58.904Z,57.45
2022-08-17T17:52:10.872Z,57.02
2022-08-17T17:53:02.490Z,56.63
2022-08-17T17:53:58.853Z,57.45
2022-08-17T17:54:58.855Z,57.24
2022-08-17T17:55:58.853Z,57.97
2022-08-17T17:56:59.614Z,59.50
2022-08-17T17:57:58.800Z,59.50
2022-08-17T17:59:01.551Z,59.31
2022-08-17T17:59:58.794Z,59.83
2022-08-17T18:01:01.496Z,60.85
2022-08-17T18:01:58.808Z,61.57
2022-08-17T18:02:58.766Z,62.29
2022-08-17T18:03:58.735Z,62.39
2022-08-17T18:05:01.389Z,62.26
2022-08-17T18:06:00.637Z,62.59
2022-08-17T18:06:58.729Z,62.88
2022-08-17T18:08:04.702Z,63.18
2022-08-17T18:08:59.696Z,63.09
2022-08-17T18:10:01.360Z,63.61
2022-08-17T18:10:59.618Z,64.23
2022-08-17T18:11:59.671Z,64.83
2022-08-17T18:12:58.692Z,65.26
2022-08-17T18:13:59.532Z,65.23
2022-08-17T18:14:58.630Z,65.56
2022-08-17T18:15:59.421Z,65.95
2022-08-17T18:16:59.422Z,66.15
2022-08-17T18:18:02.480Z,66.35
2022-08-17T18:18:59.559Z,66.98
2022-08-17T18:20:00.175Z,67.71
2022-08-17T18:21:00.064Z,68.00
2022-08-17T18:21:58.563Z,68.73
2022-08-17T18:22:58.542Z,68.83
2022-08-17T18:24:03.493Z,69.03
2022-08-17T18:24:58.556Z,69.03
2022-08-17T18:25:58.550Z,68.73
2022-08-17T18:27:00.428Z,69.56
2022-08-17T18:27:58.514Z,70.09
2022-08-17T18:28:58.492Z,70.78
2022-08-17T18:29:58.510Z,71.12
2022-08-17T18:31:02.095Z,71.42
2022-08-17T18:31:58.467Z,71.95
2022-08-17T18:33:00.077Z,72.34
2022-08-17T18:34:02.433Z,72.44
2022-08-17T18:34:59.214Z,72.64
2022-08-17T18:35:58.732Z,72.64
2022-08-17T18:36:59.198Z,72.25
2022-08-17T18:37:58.409Z,72.14
2022-08-17T18:39:01.057Z,72.25
2022-08-17T18:39:58.421Z,72.78
2022-08-17T18:40:59.169Z,72.88
2022-08-17T18:41:58.372Z,73.08
2022-08-17T18:43:00.999Z,73.18
2022-08-17T18:43:58.310Z,73.47
2022-08-17T18:44:58.350Z,73.47
2022-08-17T18:45:58.319Z,73.38
2022-08-17T18:46:58.304Z,73.57
2022-08-17T18:47:59.092Z,73.77
2022-08-17T18:48:59.479Z,73.77
2022-08-17T18:50:01.393Z,73.87
2022-08-17T18:51:00.977Z,74.21
2022-08-17T18:51:58.240Z,74.51
2022-08-17T18:53:03.877Z,74.41
2022-08-17T18:53:59.232Z,74.51